createdAt,value
2022-08-11T00:01:26.195Z,19.95
2022-08-11T00:03:58.033Z,20.11
2022-08-11T00:06:30.603Z,20.15
2022-08-11T00:09:01.100Z,20.09
2022-08-11T00:11:37.856Z,20.02
2022-08-11T00:14:16.534Z,19.96
2022-08-11T00:16:57.498Z,19.96
2022-08-11T00:20:14.171Z,19.89
2022-08-11T00:22:23.710Z,19.91
2022-08-11T00:24:58.507Z,19.79
2022-08-11T00:27:36.561Z,19.86
2022-08-11T00:30:06.822Z,19.80
2022-08-11T00:32:37.724Z,19.73
2022-08-11T00:35:54.255Z,19.78
2022-08-11T00:38:01.177Z,19.80
2022-08-11T00:40:38.815Z,19.80
2022-08-11T00:43:23.479Z,19.67
2022-08-11T00:46:10.567Z,19.57
2022-08-11T00:48:50.916Z,19.61
2022-08-11T00:52:02.166Z,19.58
2022-08-11T00:55:00.515Z,19.45
2022-08-11T00:58:09.795Z,19.47
2022-08-11T01:01:05.411Z,19.43
2022-08-11T01:03:55.399Z,19.43
2022-08-11T01:07:05.773Z,19.37
2022-08-11T01:09:56.690Z,19.30
2022-08-11T01:12:42.572Z,19.07
2022-08-11T01:15:31.470Z,19.22
2022-08-11T01:18:35.659Z,19.20
2022-08-11T01:21:39.665Z,19.16
2022-08-11T01:24:46.781Z,19.15
2022-08-11T01:28:01.187Z,19.04
2022-08-11T01:30:56.939Z,18.99
2022-08-11T01:34:10.014Z,18.99
2022-08-11T01:37:08.360Z,18.97
2022-08-11T01:40:23.693Z,18.95
2022-08-11T01:43:49.827Z,18.87
2022-08-11T01:46:26.392Z,18.85
2022-08-11T01:50:05.160Z,18.91
2022-08-11T01:52:20.251Z,18.13
2022-08-11T01:55:16.457Z,18.78
2022-08-11T01:57:52.454Z,18.76
2022-08-11T02:00:28.710Z,18.78
2022-08-11T02:03:09.776Z,18.72
2022-08-11T02:05:52.223Z,18.67
2022-08-11T02:08:44.808Z,18.64
2022-08-11T02:11:35.713Z,18.67
2022-08-11T02:14:23.092Z,18.60
2022-08-11T02:17:14.832Z,18.60
2022-08-11T02:20:13.561Z,18.60
2022-08-11T02:23:10.569Z,18.53
2022-08-11T02:25:55.585Z,18.45
2022-08-11T02:28:34.662Z,18.39
2022-08-11T02:32:15.609Z,18.42
2022-08-11T02:34:30.139Z,18.33
2022-08-11T02:37:23.572Z,18.39
2022-08-11T02:40:12.651Z,18.27
2022-08-11T02:42:58.084Z,18.22
2022-08-11T02:45:47.752Z,18.23
2022-08-11T02:48:48.707Z,18.21
2022-08-11T02:51:27.266Z,18.14
2022-08-11T02:54:08.756Z,18.13
2022-08-11T02:56:52.938Z,18.11
2022-08-11T02:59:50.783Z,18.10
2022-08-11T03:02:31.932Z,18.02
2022-08-11T03:05:14.548Z,18.00
2022-08-11T03:08:03.071Z,17.97
2022-08-11T03:10:45.999Z,17.94
2022-08-11T03:13:41.452Z,17.94
2022-08-11T03:16:38.220Z,17.77
2022-08-11T03:19:14.599Z,17.88
2022-08-11T03:22:01.739Z,16.96
2022-08-11T03:24:45.187Z,17.84
2022-08-11T03:27:30.073Z,17.78
2022-08-11T03:30:08.297Z,17.76
2022-08-11T03:33:11.614Z,17.73
2022-08-11T03:35:55.074Z,17.65
2022-08-11T03:38:30.636Z,17.63
2022-08-11T03:42:01.514Z,17.31
2022-08-11T03:44:52.044Z,17.60
2022-08-11T03:47:38.546Z,17.56
2022-08-11T03:50:25.411Z,17.64
2022-08-11T03:53:06.557Z,17.49
2022-08-11T03:55:58.053Z,17.49
2022-08-11T03:59:05.757Z,17.46
2022-08-11T04:02:11.006Z,17.39
2022-08-11T04:05:14.685Z,17.38
2022-08-11T04:08:19.717Z,17.29
2022-08-11T04:11:29.178Z,17.29
2022-08-11T04:14:40.667Z,17.11
2022-08-11T04:17:36.694Z,17.07
2022-08-11T04:20:24.993Z,17.20
2022-08-11T04:24:13.005Z,17.23
2022-08-11T04:26:39.716Z,17.23
2022-08-11T04:29:25.149Z,17.22
2022-08-11T04:32:21.840Z,17.21
2022-08-11T04:35:15.577Z,17.20
2022-08-11T04:38:24.566Z,17.14
2022-08-11T04:41:21.474Z,17.17
2022-08-11T04:44:32.938Z,17.11
2022-08-11T04:48:01.406Z,17.02
2022-08-11T04:51:00.711Z,16.91
2022-08-11T04:54:16.453Z,17.09
2022-08-11T04:57:09.070Z,17.12
2022-08-11T05:00:32.871Z,17.06
2022-08-11T05:03:45.158Z,17.01
2022-08-11T05:06:52.452Z,17.10
2022-08-11T05:09:35.986Z,16.11
2022-08-11T05:12:30.165Z,17.10
2022-08-11T05:15:19.394Z,17.15
2022-08-11T05:18:13.457Z,17.15
2022-08-11T05:21:11.070Z,17.18
2022-08-11T05:24:00.689Z,17.26
2022-08-11T05:26:57.939Z,17.43
2022-08-11T05:29:58.075Z,17.75
2022-08-11T05:32:58.014Z,18.05
2022-08-11T05:36:01.533Z,18.32
2022-08-11T05:38:45.889Z,18.64
2022-08-11T05:41:33.257Z,18.93
2022-08-11T05:44:23.397Z,19.16
2022-08-11T05:47:11.120Z,18.07
2022-08-11T05:49:59.173Z,19.46
2022-08-11T05:52:56.482Z,19.91
2022-08-11T05:56:01.886Z,20.07
2022-08-11T05:58:41.988Z,19.92
2022-08-11T06:01:14.297Z,20.00
2022-08-11T06:04:04.589Z,20.29
2022-08-11T06:06:34.257Z,20.58
2022-08-11T06:09:03.871Z,20.72
2022-08-11T06:11:44.388Z,20.85
2022-08-11T06:14:16.586Z,21.02
2022-08-11T06:16:50.548Z,21.25
2022-08-11T06:19:23.504Z,21.44
2022-08-11T06:21:53.706Z,21.45
2022-08-11T06:24:23.576Z,21.56
2022-08-11T06:27:13.522Z,21.65
2022-08-11T06:29:54.980Z,21.85
2022-08-11T06:32:31.051Z,22.03
2022-08-11T06:35:11.357Z,22.25
2022-08-11T06:37:50.023Z,22.32
2022-08-11T06:40:36.948Z,22.46
2022-08-11T06:43:16.629Z,22.69
2022-08-11T06:45:56.520Z,22.88
2022-08-11T06:48:27.235Z,23.04
2022-08-11T06:51:14.952Z,22.94
2022-08-11T06:54:03.548Z,23.18
2022-08-11T06:57:26.453Z,22.84
2022-08-11T07:00:07.143Z,23.12
2022-08-11T07:02:47.336Z,23.45
2022-08-11T07:05:23.838Z,23.67
2022-08-11T07:08:39.465Z,23.90
2022-08-11T07:12:02.010Z,23.79
2022-08-11T07:14:58.262Z,23.47
2022-08-11T07:18:14.670Z,23.94
2022-08-11T07:21:04.206Z,24.20
2022-08-11T07:24:14.181Z,24.43
2022-08-11T07:27:04.431Z,24.65
2022-08-11T07:29:34.503Z,24.93
2022-08-11T07:32:15.329Z,24.73
2022-08-11T07:34:53.360Z,25.14
2022-08-11T07:37:26.159Z,25.14
2022-08-11T07:39:55.325Z,25.21
2022-08-11T07:42:30.139Z,25.11
2022-08-11T07:45:18.399Z,24.96
2022-08-11T07:48:04.843Z,25.53
2022-08-11T07:50:55.898Z,25.82
2022-08-11T07:53:27.301Z,25.87
2022-08-11T07:56:01.157Z,25.79
2022-08-11T07:58:52.351Z,25.85
2022-08-11T08:01:41.740Z,26.07
2022-08-11T08:04:30.940Z,26.05
2022-08-11T08:07:19.950Z,26.15
2022-08-11T08:10:08.544Z,26.27
2022-08-11T08:12:55.720Z,26.44
2022-08-11T08:15:43.148Z,26.55
2022-08-11T08:18:26.814Z,26.77
2022-08-11T08:21:12.094Z,26.82
2022-08-11T08:23:43.264Z,26.94
2022-08-11T08:26:34.227Z,27.12
2022-08-11T08:29:24.968Z,27.39
2022-08-11T08:31:55.250Z,27.32
2022-08-11T08:34:24.965Z,27.28
2022-08-11T08:36:58.303Z,27.65
2022-08-11T08:39:27.247Z,27.77
2022-08-11T08:42:02.398Z,27.85
2022-08-11T08:44:39.117Z,28.04
2022-08-11T08:47:15.302Z,28.17
2022-08-11T08:50:08.231Z,28.32
2022-08-11T08:52:43.952Z,28.50
2022-08-11T08:55:19.457Z,28.60
2022-08-11T08:57:53.755Z,28.68
2022-08-11T09:00:24.464Z,28.69
2022-08-11T09:02:53.856Z,28.82
2022-08-11T09:05:25.953Z,28.81
2022-08-11T09:07:58.119Z,28.85
2022-08-11T09:10:30.916Z,28.97
2022-08-11T09:13:05.643Z,29.12
2022-08-11T09:15:40.336Z,29.26
2022-08-11T09:18:13.286Z,29.33
2022-08-11T09:20:43.184Z,29.27
2022-08-11T09:24:07.509Z,29.41
2022-08-11T09:26:41.272Z,29.41
2022-08-11T09:29:12.789Z,29.41
2022-08-11T09:31:43.240Z,29.43
2022-08-11T09:34:15.280Z,29.59
2022-08-11T09:37:03.567Z,29.53
2022-08-11T09:39:56.238Z,29.73
2022-08-11T09:42:47.576Z,29.75
2022-08-11T09:45:18.317Z,29.98
2022-08-11T09:47:48.347Z,30.22
2022-08-11T09:50:20.204Z,30.12
2022-08-11T09:53:35.096Z,30.18
2022-08-11T09:55:45.734Z,30.23
2022-08-11T09:58:43.405Z,29.75
2022-08-11T10:01:27.439Z,30.01
2022-08-11T10:04:01.397Z,30.16
2022-08-11T10:06:54.026Z,30.37
2022-08-11T10:09:25.569Z,30.41
2022-08-11T10:12:02.930Z,30.55
2022-08-11T10:14:51.196Z,30.49
2022-08-11T10:17:23.572Z,30.50
2022-08-11T10:20:04.178Z,30.42
2022-08-11T10:23:05.526Z,30.76
2022-08-11T10:25:51.916Z,31.01
2022-08-11T10:28:36.324Z,31.03
2022-08-11T10:31:29.046Z,30.72
2022-08-11T10:34:12.363Z,31.44
2022-08-11T10:36:48.678Z,31.56
2022-08-11T10:39:21.684Z,31.75
2022-08-11T10:42:12.403Z,30.81
2022-08-11T10:44:49.491Z,31.19
2022-08-11T10:47:36.845Z,31.34
2022-08-11T10:50:28.973Z,31.47
2022-08-11T10:53:17.774Z,31.28
2022-08-11T10:58:48.234Z,31.75
2022-08-11T11:01:19.608Z,31.90
2022-08-11T11:03:52.718Z,32.02
2022-08-11T11:06:32.549Z,32.01
2022-08-11T11:09:08.410Z,32.00
2022-08-11T11:11:58.197Z,32.12
2022-08-11T11:14:58.165Z,32.10
2022-08-11T11:17:48.096Z,32.21
2022-08-11T11:20:37.038Z,32.14
2022-08-11T11:23:16.816Z,32.03
2022-08-11T11:26:14.627Z,32.15
2022-08-11T11:29:26.276Z,32.34
2022-08-11T11:32:10.717Z,32.47
2022-08-11T11:35:05.820Z,32.58
2022-08-11T11:37:35.804Z,32.66
2022-08-11T11:40:11.561Z,32.70
2022-08-11T11:42:42.799Z,32.76
2022-08-11T11:45:23.276Z,32.82
2022-08-11T11:47:56.469Z,32.64
2022-08-11T11:50:26.366Z,32.57
2022-08-11T11:53:07.126Z,32.69
2022-08-11T11:55:38.436Z,32.67
2022-08-11T11:58:27.798Z,32.79
2022-08-11T12:01:16.241Z,32.73
2022-08-11T12:03:47.147Z,32.52
2022-08-11T12:06:20.781Z,32.09
2022-08-11T12:08:53.096Z,32.32
2022-08-11T12:11:43.771Z,32.34
2022-08-11T12:14:13.650Z,32.57
2022-08-11T12:16:45.234Z,32.69
2022-08-11T12:19:17.953Z,32.82
2022-08-11T12:22:05.367Z,32.82
2022-08-11T12:24:54.222Z,31.93
2022-08-11T12:27:27.749Z,31.93
2022-08-11T12:30:00.624Z,32.18
2022-08-11T12:32:33.079Z,32.22
2022-08-11T12:35:03.062Z,32.23
2022-08-11T12:37:34.011Z,32.11
2022-08-11T12:40:43.549Z,32.49
2022-08-11T12:43:39.464Z,32.52
2022-08-11T12:46:11.193Z,32.52
2022-08-11T12:49:03.806Z,32.58
2022-08-11T12:52:12.110Z,32.59
2022-08-11T12:54:59.883Z,32.59
2022-08-11T12:57:50.809Z,32.53
2022-08-11T13:00:40.200Z,32.45
2022-08-11T13:03:28.935Z,32.10
2022-08-11T13:06:00.043Z,32.22
2022-08-11T13:08:30.713Z,32.22
2022-08-11T13:11:19.778Z,32.28
2022-08-11T13:13:57.200Z,32.42
2022-08-11T13:16:31.958Z,32.50
2022-08-11T13:19:04.357Z,32.24
2022-08-11T13:21:34.146Z,32.75
2022-08-11T13:24:03.884Z,32.78
2022-08-11T13:26:48.081Z,32.78
2022-08-11T13:29:21.253Z,32.66
2022-08-11T13:31:53.527Z,32.44
2022-08-11T13:34:27.425Z,32.36
2022-08-11T13:37:03.160Z,32.46
2022-08-11T13:39:34.732Z,32.43
2022-08-11T13:42:06.980Z,32.27
2022-08-11T13:44:37.897Z,32.14
2022-08-11T13:47:13.210Z,32.28
2022-08-11T13:49:43.513Z,32.25
2022-08-11T13:52:14.840Z,32.25
2022-08-11T13:54:46.389Z,32.01
2022-08-11T13:58:08.584Z,31.85
2022-08-11T14:00:13.299Z,31.70
2022-08-11T14:02:58.930Z,31.66
2022-08-11T14:05:31.793Z,31.56
2022-08-11T14:08:09.088Z,31.68
2022-08-11T14:12:22.844Z,31.53
2022-08-11T14:14:14.845Z,31.31
2022-08-11T14:16:45.910Z,31.54
2022-08-11T14:19:18.566Z,31.62
2022-08-11T14:22:08.838Z,31.67
2022-08-11T14:24:40.238Z,31.55
2022-08-11T14:28:29.440Z,31.87
2022-08-11T14:30:03.776Z,31.63
2022-08-11T14:32:33.565Z,31.32
2022-08-11T14:35:05.194Z,31.30
2022-08-11T14:37:37.955Z,31.12
2022-08-11T14:40:33.263Z,30.98
2022-08-11T14:44:12.232Z,30.27
2022-08-11T14:46:43.206Z,31.00
2022-08-11T14:49:15.252Z,30.94
2022-08-11T14:51:47.414Z,31.06
2022-08-11T14:54:35.728Z,30.80
2022-08-11T14:57:07.050Z,30.86
2022-08-11T14:59:38.393Z,31.02
2022-08-11T15:02:27.470Z,31.03
2022-08-11T15:05:01.048Z,30.87
2022-08-11T15:07:34.020Z,30.48
2022-08-11T15:10:13.059Z,30.85
2022-08-11T15:12:43.960Z,30.75
2022-08-11T15:15:32.420Z,30.44
2022-08-11T15:18:04.929Z,30.63
2022-08-11T15:20:54.216Z,29.98
2022-08-11T15:23:42.925Z,30.39
2022-08-11T15:26:18.599Z,30.13
2022-08-11T15:29:07.622Z,30.17
2022-08-11T15:31:56.835Z,30.22
2022-08-11T15:34:47.570Z,30.06
2022-08-11T15:37:31.507Z,30.34
2022-08-11T15:40:32.100Z,29.89
2022-08-11T15:43:29.009Z,30.00
2022-08-11T15:46:03.328Z,30.28
2022-08-11T15:48:41.783Z,30.31
2022-08-11T15:51:15.806Z,30.06
2022-08-11T15:53:56.895Z,30.05
2022-08-11T15:56:31.296Z,30.12
2022-08-11T15:59:42.753Z,29.98
2022-08-11T16:02:34.265Z,30.12
2022-08-11T16:05:13.382Z,30.05
2022-08-11T16:07:47.137Z,29.96
2022-08-11T16:10:21.927Z,29.93
2022-08-11T16:13:22.993Z,29.41
2022-08-11T16:16:13.122Z,29.75
2022-08-11T16:18:47.176Z,29.92
2022-08-11T16:21:26.171Z,29.85
2022-08-11T16:25:58.199Z,29.61
2022-08-11T16:27:12.968Z,29.54
2022-08-11T16:29:48.976Z,29.34
2022-08-11T16:32:23.620Z,29.51
2022-08-11T16:35:15.941Z,29.42
2022-08-11T16:38:04.026Z,29.37
2022-08-11T16:40:34.888Z,29.40
2022-08-11T16:43:24.241Z,29.33
2022-08-11T16:46:13.985Z,29.12
2022-08-11T16:48:45.149Z,28.99
2022-08-11T16:51:20.985Z,28.82
2022-08-11T16:54:04.682Z,28.95
2022-08-11T16:56:40.097Z,28.97
2022-08-11T16:59:18.240Z,28.67
2022-08-11T17:01:53.609Z,28.78
2022-08-11T17:04:48.620Z,28.57
2022-08-11T17:07:51.294Z,28.60
2022-08-11T17:10:51.214Z,28.49
2022-08-11T17:13:29.192Z,28.50
2022-08-11T17:16:09.415Z,28.34
2022-08-11T17:18:45.828Z,28.19
2022-08-11T17:21:20.499Z,28.23
2022-08-11T17:23:55.206Z,28.19
2022-08-11T17:26:49.455Z,28.14
2022-08-11T17:29:21.858Z,28.20
2022-08-11T17:32:08.615Z,28.07
2022-08-11T17:34:58.961Z,28.19
2022-08-11T17:37:33.318Z,28.12
2022-08-11T17:40:06.226Z,28.10
2022-08-11T17:42:55.305Z,27.95
2022-08-11T17:45:44.497Z,27.40
2022-08-11T17:48:26.816Z,27.86
2022-08-11T17:51:00.435Z,27.76
2022-08-11T17:54:10.008Z,27.53
2022-08-11T17:56:58.094Z,27.64
2022-08-11T17:59:49.230Z,27.68
2022-08-11T18:02:38.296Z,27.55
2022-08-11T18:05:13.274Z,27.52
2022-08-11T18:08:05.704Z,27.52
2022-08-11T18:10:54.604Z,27.34
2022-08-11T18:13:44.185Z,27.19
2022-08-11T18:16:31.864Z,26.47
2022-08-11T18:19:19.040Z,26.99
2022-08-11T18:22:15.385Z,26.41
2022-08-11T18:25:09.108Z,26.88
2022-08-11T18:27:59.331Z,26.73
2022-08-11T18:30:49.212Z,26.58
2022-08-11T18:34:08.166Z,26.44
2022-08-11T18:36:53.080Z,26.19
2022-08-11T18:39:42.359Z,25.55
2022-08-11T18:42:34.853Z,26.08
2022-08-11T18:45:26.750Z,26.03
2022-08-11T18:48:20.271Z,26.09
2022-08-11T18:51:31.265Z,25.91
2022-08-11T18:54:21.597Z,25.80
2022-08-11T18:57:12.027Z,25.87
2022-08-11T19:00:02.842Z,25.34
2022-08-11T19:02:53.562Z,25.79
2022-08-11T19:06:05.896Z,25.69
2022-08-11T19:08:57.352Z,25.52
2022-08-11T19:11:47.301Z,25.54
2022-08-11T19:14:35.669Z,25.43
2022-08-11T19:17:43.939Z,25.42
2022-08-11T19:20:36.129Z,24.74
2022-08-11T19:23:27.495Z,25.14
2022-08-11T19:26:16.432Z,25.07
2022-08-11T19:29:06.739Z,25.06
2022-08-11T19:31:56.216Z,25.03
2022-08-11T19:34:46.137Z,25.03
2022-08-11T19:37:33.740Z,24.96
2022-08-11T19:40:32.553Z,24.86
2022-08-11T19:43:26.269Z,24.85
2022-08-11T19:46:19.011Z,24.80
2022-08-11T19:49:09.652Z,24.77
2022-08-11T19:51:59.394Z,24.74
2022-08-11T19:54:50.357Z,24.62
2022-08-11T19:57:40.144Z,24.50
2022-08-11T20:00:30.418Z,24.51
2022-08-11T20:03:18.635Z,24.42
2022-08-11T20:06:07.053Z,24.38
2022-08-11T20:08:59.091Z,24.30
2022-08-11T20:11:50.678Z,24.10
2022-08-11T20:14:40.531Z,24.06
2022-08-11T20:17:30.194Z,24.00
2022-08-11T20:20:21.457Z,23.92
2022-08-11T20:23:09.647Z,23.98
2022-08-11T20:26:08.432Z,23.35
2022-08-11T20:29:02.304Z,23.83
2022-08-11T20:31:50.869Z,23.83
2022-08-11T20:34:38.488Z,23.83
2022-08-11T20:37:26.454Z,23.84
2022-08-11T20:40:15.229Z,23.76
2022-08-11T20:43:04.034Z,23.81
2022-08-11T20:45:56.883Z,23.58
2022-08-11T20:48:45.743Z,23.64
2022-08-11T20:51:38.749Z,23.33
2022-08-11T20:54:38.297Z,23.61
2022-08-11T20:58:00.046Z,23.57
2022-08-11T21:00:43.886Z,23.55
2022-08-11T21:03:35.807Z,23.52
2022-08-11T21:06:31.147Z,23.52
2022-08-11T21:09:24.989Z,23.41
2022-08-11T21:12:29.518Z,23.44
2022-08-11T21:15:30.825Z,23.38
2022-08-11T21:18:29.628Z,23.35
2022-08-11T21:21:21.160Z,23.34
2022-08-11T21:24:11.380Z,23.40
2022-08-11T21:27:03.707Z,23.18
2022-08-11T21:29:53.368Z,23.14
2022-08-11T21:32:42.886Z,23.18
2022-08-11T21:35:32.627Z,22.94
2022-08-11T21:38:25.093Z,23.03
2022-08-11T21:41:14.727Z,23.07
2022-08-11T21:44:04.529Z,23.01
2022-08-11T21:46:59.407Z,22.92
2022-08-11T21:49:48.726Z,22.90
2022-08-11T21:52:38.726Z,22.86
2022-08-11T21:55:27.545Z,22.78
2022-08-11T21:58:16.585Z,22.72
2022-08-11T22:01:05.210Z,22.71
2022-08-11T22:03:53.303Z,22.62
2022-08-11T22:06:43.953Z,22.53
2022-08-11T22:09:33.492Z,22.52
2022-08-11T22:12:33.617Z,22.53
2022-08-11T22:15:27.769Z,22.49
2022-08-11T22:18:15.723Z,22.39
2022-08-11T22:21:03.881Z,22.34
2022-08-11T22:23:55.281Z,22.34
2022-08-11T22:26:47.633Z,22.16
2022-08-11T22:29:50.793Z,22.25
2022-08-11T22:32:40.095Z,22.16
2022-08-11T22:35:29.698Z,22.21
2022-08-11T22:38:18.783Z,21.48
2022-08-11T22:41:06.770Z,22.03
2022-08-11T22:43:56.426Z,21.98
2022-08-11T22:46:45.045Z,21.80
2022-08-11T22:49:57.086Z,21.95
2022-08-11T22:52:45.491Z,21.96
2022-08-11T22:55:33.851Z,21.82
2022-08-11T22:58:22.895Z,21.83
2022-08-11T23:01:12.463Z,21.70
2022-08-11T23:04:00.352Z,21.75
2022-08-11T23:06:48.475Z,21.71
2022-08-11T23:09:39.474Z,21.50
2022-08-11T23:12:27.690Z,21.56
2022-08-11T23:15:16.214Z,21.48
2022-08-11T23:18:06.181Z,21.51
2022-08-11T23:20:55.575Z,21.43
2022-08-11T23:23:47.649Z,21.42
2022-08-11T23:26:38.918Z,21.35
2022-08-11T23:29:27.604Z,21.15
2022-08-11T23:32:15.664Z,21.29
2022-08-11T23:35:40.178Z,21.26
2022-08-11T23:38:17.279Z,21.25
2022-08-11T23:41:04.621Z,21.17
2022-08-11T23:43:52.342Z,21.18
2022-08-11T23:46:42.842Z,21.09
2022-08-11T23:49:30.326Z,20.93
2022-08-11T23:52:22.098Z,20.95
2022-08-11T23:55:11.395Z,21.02
2022-08-11T23:58:00.903Z,20.96
